createdAt,value
2023-05-09T00:00:26.050Z,7.70
2023-05-09T00:05:30.628Z,7.65
2023-05-09T00:10:34.046Z,7.60
2023-05-09T00:15:37.399Z,7.48
2023-05-09T00:20:42.448Z,7.48
2023-05-09T00:25:45.786Z,7.43
2023-05-09T00:30:49.290Z,7.41
2023-05-09T00:35:54.326Z,7.30
2023-05-09T00:40:57.716Z,7.27
2023-05-09T00:46:01.218Z,7.18
2023-05-09T00:51:06.284Z,7.18
2023-05-09T00:56:10.297Z,7.16
2023-05-09T01:01:13.549Z,7.09
2023-05-09T01:06:23.917Z,6.91
2023-05-09T01:11:33.329Z,6.86
2023-05-09T01:16:42.805Z,6.82
2023-05-09T01:21:50.234Z,6.77
2023-05-09T01:27:19.052Z,6.64
2023-05-09T01:32:26.517Z,6.62
2023-05-09T01:37:32.746Z,6.51
2023-05-09T01:42:42.580Z,6.42
2023-05-09T01:47:50.180Z,6.40
2023-05-09T01:52:57.901Z,6.31
2023-05-09T01:58:02.273Z,6.29
2023-05-09T02:03:07.760Z,6.15
2023-05-09T02:08:11.292Z,6.22
2023-05-09T02:13:14.712Z,6.17
2023-05-09T02:18:19.447Z,6.06
2023-05-09T02:23:22.796Z,6.00
2023-05-09T02:28:28.094Z,5.94
2023-05-09T02:33:36.177Z,5.98
2023-05-09T02:38:39.583Z,5.98
2023-05-09T02:43:42.978Z,5.91
2023-05-09T02:48:47.942Z,5.86
2023-05-09T02:53:51.271Z,5.81
2023-05-09T02:58:54.638Z,5.71
2023-05-09T03:03:59.244Z,5.69
2023-05-09T03:09:02.788Z,5.62
2023-05-09T03:14:08.481Z,5.55
2023-05-09T03:19:13.162Z,5.46
2023-05-09T03:24:16.882Z,5.57
2023-05-09T03:29:20.183Z,5.63
2023-05-09T03:34:24.956Z,5.57
2023-05-09T03:39:28.333Z,5.60
2023-05-09T03:44:33.421Z,5.66
2023-05-09T03:49:38.424Z,5.55
2023-05-09T03:54:43.223Z,5.70
2023-05-09T03:59:46.637Z,5.71
2023-05-09T04:04:52.957Z,5.72
2023-05-09T04:09:58.600Z,5.70
2023-05-09T04:15:02.669Z,5.90
2023-05-09T04:20:10.726Z,5.90
2023-05-09T04:25:16.057Z,6.05
2023-05-09T04:30:21.082Z,6.17
2023-05-09T04:35:26.822Z,6.26
2023-05-09T04:40:31.283Z,6.44
2023-05-09T04:45:37.309Z,6.59
2023-05-09T04:50:42.607Z,6.78
2023-05-09T04:55:46.000Z,6.90
2023-05-09T05:00:50.200Z,7.10
2023-05-09T05:05:56.178Z,7.36
2023-05-09T05:10:59.639Z,7.51
2023-05-09T05:16:02.888Z,7.70
2023-05-09T05:21:07.743Z,7.96
2023-05-09T05:26:11.373Z,8.45
2023-05-09T05:31:15.090Z,10.04
2023-05-09T05:36:20.011Z,11.55
2023-05-09T05:41:24.262Z,12.47
2023-05-09T05:46:27.940Z,13.29
2023-05-09T05:51:32.848Z,12.97
2023-05-09T05:56:37.406Z,13.37
2023-05-09T06:01:41.438Z,14.07
2023-05-09T06:06:46.770Z,15.58
2023-05-09T06:11:50.254Z,16.91
2023-05-09T06:16:54.533Z,17.62
2023-05-09T06:21:59.280Z,18.66
2023-05-09T06:27:03.057Z,19.74
2023-05-09T06:32:06.504Z,20.18
2023-05-09T06:37:11.122Z,20.86
2023-05-09T06:42:14.285Z,21.49
2023-05-09T06:47:20.092Z,22.01
2023-05-09T06:52:24.810Z,22.77
2023-05-09T06:57:28.207Z,22.93
2023-05-09T07:02:31.665Z,22.68
2023-05-09T07:07:36.351Z,21.94
2023-05-09T07:12:39.891Z,21.36
2023-05-09T07:17:43.530Z,21.24
2023-05-09T07:22:48.553Z,21.15
2023-05-09T07:27:51.753Z,20.80
2023-05-09T07:32:54.869Z,21.29
2023-05-09T07:37:59.582Z,20.95
2023-05-09T07:43:02.677Z,20.53
2023-05-09T07:48:06.769Z,20.99
2023-05-09T07:53:11.606Z,21.69
2023-05-09T07:58:15.012Z,21.62
2023-05-09T08:03:19.545Z,21.29
2023-05-09T08:08:24.709Z,21.43
2023-05-09T08:13:28.076Z,20.67
2023-05-09T08:18:31.527Z,21.52
2023-05-09T08:23:36.462Z,21.06
2023-05-09T08:28:39.773Z,21.02
2023-05-09T08:33:43.011Z,21.13
2023-05-09T08:38:47.619Z,21.10
2023-05-09T08:43:51.241Z,21.82
2023-05-09T08:48:55.431Z,22.05
2023-05-09T08:54:00.633Z,22.16
2023-05-09T08:59:05.830Z,22.58
2023-05-09T09:04:11.932Z,22.44
2023-05-09T09:09:17.503Z,22.57
2023-05-09T09:14:25.581Z,23.26
2023-05-09T09:19:32.110Z,22.99
2023-05-09T09:24:37.377Z,22.24
2023-05-09T09:29:40.600Z,23.17
2023-05-09T09:34:43.802Z,23.27
2023-05-09T09:39:56.634Z,23.58
2023-05-09T09:45:03.545Z,23.37
2023-05-09T09:50:12.126Z,23.59
2023-05-09T09:55:17.219Z,23.36
2023-05-09T10:00:27.398Z,23.88
2023-05-09T10:05:34.431Z,23.87
2023-05-09T10:10:40.445Z,23.95
2023-05-09T10:15:52.991Z,23.46
2023-05-09T10:21:01.028Z,24.34
2023-05-09T10:26:13.833Z,24.69
2023-05-09T10:31:23.706Z,24.24
2023-05-09T10:36:27.504Z,24.77
2023-05-09T10:41:32.417Z,24.37
2023-05-09T10:46:37.136Z,24.30
2023-05-09T10:51:40.483Z,23.63
2023-05-09T10:56:45.674Z,23.96
2023-05-09T11:02:01.136Z,23.23
2023-05-09T11:07:04.574Z,23.37
2023-05-09T11:12:13.873Z,22.56
2023-05-09T11:17:29.913Z,23.40
2023-05-09T11:22:40.319Z,23.15
2023-05-09T11:27:47.101Z,24.07
2023-05-09T11:32:53.488Z,23.07
2023-05-09T11:38:01.654Z,23.22
2023-05-09T11:43:09.398Z,23.38
2023-05-09T11:48:12.667Z,22.71
2023-05-09T11:53:16.028Z,24.12
2023-05-09T11:58:21.546Z,23.82
2023-05-09T12:03:25.250Z,24.22
2023-05-09T12:08:30.277Z,24.52
2023-05-09T12:13:35.465Z,24.86
2023-05-09T12:18:38.732Z,24.25
2023-05-09T12:23:42.535Z,25.33
2023-05-09T12:28:49.076Z,25.16
2023-05-09T12:33:52.987Z,24.70
2023-05-09T12:38:57.035Z,24.83
2023-05-09T12:44:02.058Z,24.51
2023-05-09T12:49:05.458Z,23.62
2023-05-09T12:54:11.097Z,23.72
2023-05-09T12:59:22.763Z,24.26
2023-05-09T13:04:27.691Z,24.40
2023-05-09T13:09:31.601Z,24.58
2023-05-09T13:14:36.251Z,23.66
2023-05-09T13:19:40.052Z,23.65
2023-05-09T13:24:43.321Z,24.88
2023-05-09T13:29:48.118Z,25.29
2023-05-09T13:34:51.466Z,24.88
2023-05-09T13:39:55.023Z,24.60
2023-05-09T13:44:59.936Z,24.06
2023-05-09T13:50:03.535Z,24.24
2023-05-09T13:55:07.549Z,25.23
2023-05-09T14:00:15.699Z,25.30
2023-05-09T14:05:19.230Z,25.19
2023-05-09T14:10:22.812Z,24.82
2023-05-09T14:15:27.490Z,25.27
2023-05-09T14:20:30.826Z,24.34
2023-05-09T14:25:34.272Z,23.82
2023-05-09T14:30:39.265Z,23.61
2023-05-09T14:35:42.673Z,23.48
2023-05-09T14:40:46.084Z,24.32
2023-05-09T14:45:50.890Z,24.94
2023-05-09T14:50:56.905Z,24.29
2023-05-09T14:56:00.857Z,24.61
2023-05-09T15:01:05.607Z,24.29
2023-05-09T15:06:09.014Z,24.30
2023-05-09T15:11:12.600Z,24.64
2023-05-09T15:16:17.402Z,24.21
2023-05-09T15:21:20.777Z,24.26
2023-05-09T15:26:24.269Z,23.66
2023-05-09T15:31:33.156Z,23.70
2023-05-09T15:36:36.563Z,24.09
2023-05-09T15:41:40.157Z,23.94
2023-05-09T15:46:45.086Z,22.91
2023-05-09T15:51:48.370Z,23.25
2023-05-09T15:56:51.628Z,23.55
2023-05-09T16:01:56.653Z,23.53
2023-05-09T16:07:01.771Z,23.00
2023-05-09T16:12:05.861Z,23.15
2023-05-09T16:17:10.559Z,23.46
2023-05-09T16:22:14.190Z,23.32
2023-05-09T16:27:17.535Z,23.44
2023-05-09T16:32:22.295Z,23.09
2023-05-09T16:37:25.706Z,22.24
2023-05-09T16:42:29.045Z,22.47
2023-05-09T16:47:33.749Z,22.49
2023-05-09T16:52:37.106Z,22.25
2023-05-09T16:57:40.532Z,22.24
2023-05-09T17:02:45.365Z,22.09
2023-05-09T17:07:48.800Z,21.50
2023-05-09T17:12:52.801Z,21.49
2023-05-09T17:17:57.545Z,21.00
2023-05-09T17:23:01.127Z,21.15
2023-05-09T17:28:04.540Z,20.76
2023-05-09T17:33:09.374Z,20.76
2023-05-09T17:38:15.496Z,20.42
2023-05-09T17:43:18.785Z,20.31
2023-05-09T17:48:23.516Z,20.22
2023-05-09T17:53:26.872Z,20.05
2023-05-09T17:58:30.583Z,19.59
2023-05-09T18:03:35.654Z,19.51
2023-05-09T18:08:39.091Z,19.17
2023-05-09T18:13:42.503Z,18.68
2023-05-09T18:18:47.197Z,18.08
2023-05-09T18:23:50.401Z,17.55
2023-05-09T18:28:53.708Z,17.49
2023-05-09T18:33:58.464Z,17.21
2023-05-09T18:39:02.936Z,16.97
2023-05-09T18:44:07.193Z,16.50
2023-05-09T18:49:13.188Z,16.39
2023-05-09T18:54:19.096Z,16.21
2023-05-09T18:59:23.641Z,15.92
2023-05-09T19:04:28.937Z,16.00
2023-05-09T19:09:33.015Z,15.87
2023-05-09T19:14:37.845Z,15.70
2023-05-09T19:19:43.010Z,15.58
2023-05-09T19:24:46.692Z,15.28
2023-05-09T19:29:50.375Z,15.20
2023-05-09T19:34:55.371Z,15.11
2023-05-09T19:39:58.831Z,14.80
2023-05-09T19:45:02.452Z,14.89
2023-05-09T19:50:09.130Z,14.79
2023-05-09T19:55:12.661Z,14.62
2023-05-09T20:00:16.770Z,14.38
2023-05-09T20:05:28.997Z,14.15
2023-05-09T20:10:34.452Z,13.77
2023-05-09T20:15:38.897Z,13.51
2023-05-09T20:20:45.851Z,13.16
2023-05-09T20:25:49.234Z,12.97
2023-05-09T20:30:54.300Z,12.84
2023-05-09T20:36:01.377Z,12.47
2023-05-09T20:41:15.432Z,12.28
2023-05-09T20:46:22.274Z,12.11
2023-05-09T20:51:27.064Z,11.80
2023-05-09T20:56:30.451Z,11.63
2023-05-09T21:01:36.666Z,11.49
2023-05-09T21:06:41.404Z,11.49
2023-05-09T21:11:45.893Z,11.36
2023-05-09T21:16:49.180Z,11.30
2023-05-09T21:21:54.038Z,11.19
2023-05-09T21:26:58.127Z,11.10
2023-05-09T21:32:01.475Z,10.98
2023-05-09T21:37:06.281Z,10.85
2023-05-09T21:42:10.051Z,10.48
2023-05-09T21:47:13.495Z,10.51
2023-05-09T21:52:19.355Z,10.52
2023-05-09T21:57:22.739Z,10.51
2023-05-09T22:02:26.109Z,10.52
2023-05-09T22:07:30.772Z,10.39
2023-05-09T22:12:34.128Z,10.37
2023-05-09T22:17:37.741Z,10.39
2023-05-09T22:22:42.449Z,10.22
2023-05-09T22:27:45.682Z,10.31
2023-05-09T22:32:48.867Z,10.41
2023-05-09T22:37:53.712Z,10.26
2023-05-09T22:42:56.894Z,10.20
2023-05-09T22:48:00.148Z,10.25
2023-05-09T22:53:04.898Z,10.23
2023-05-09T22:58:08.452Z,10.18
2023-05-09T23:03:11.792Z,10.23
2023-05-09T23:08:16.527Z,10.18
2023-05-09T23:13:19.735Z,10.27
2023-05-09T23:18:23.941Z,10.01
2023-05-09T23:23:28.850Z,10.55
2023-05-09T23:28:32.113Z,10.84
2023-05-09T23:33:35.491Z,11.18
2023-05-09T23:38:40.117Z,11.28
2023-05-09T23:43:43.452Z,11.51
2023-05-09T23:48:46.899Z,12.09
2023-05-09T23:53:51.626Z,12.81
2023-05-09T23:58:55.184Z,12.95
